ZFC1 CYYJ-CYYC
Flight info
| Callsign | ZFC1 |
|---|---|
| Flight time | 2h 11m |
| Altitude | 17000 |
| Route | SQURL DCT CILLI Q983 NORET VESGA6 |
| Aircraft | PA34/L-SBDFGRY/S |
Departure
| Time | 2026-05-03 21:54 |
|---|---|
| Airport | Victoria International Airport (CYYJ) |
Arrival
| Time | 2026-05-04 00:06 |
|---|---|
| Airport | Calgary International Airport (CYYC) |
| Time | Latitude | Longitude | Altitude | Speed | Heading |
|---|---|---|---|---|---|
| 2026-05-03 21:38 | 48.64605 | -123.42190 | 51 ft | 0 kts | 103° |
| 2026-05-03 21:49 | 48.64607 | -123.42177 | 51 ft | 3 kts | 44° |
| 2026-05-03 21:49 | 48.64630 | -123.42204 | 51 ft | 6 kts | 308° |
| 2026-05-03 21:50 | 48.64681 | -123.42195 | 51 ft | 9 kts | 43° |
| 2026-05-03 21:50 | 48.64730 | -123.42188 | 51 ft | 8 kts | 295° |
| 2026-05-03 21:50 | 48.64734 | -123.42209 | 51 ft | 10 kts | 286° |
| 2026-05-03 21:50 | 48.64762 | -123.42351 | 51 ft | 17 kts | 286° |
| 2026-05-03 21:51 | 48.64796 | -123.42531 | 50 ft | 18 kts | 285° |
| 2026-05-03 21:51 | 48.64835 | -123.42735 | 50 ft | 21 kts | 284° |
| 2026-05-03 21:51 | 48.64874 | -123.42941 | 51 ft | 20 kts | 285° |
| 2026-05-03 21:51 | 48.64911 | -123.43145 | 50 ft | 20 kts | 288° |
| 2026-05-03 21:52 | 48.64953 | -123.43353 | 49 ft | 21 kts | 288° |
| 2026-05-03 21:52 | 48.64992 | -123.43564 | 49 ft | 21 kts | 285° |
| 2026-05-03 21:52 | 48.65031 | -123.43774 | 49 ft | 21 kts | 285° |
| 2026-05-03 21:52 | 48.65052 | -123.43852 | 48 ft | 0 kts | 323° |
| 2026-05-03 21:53 | 48.65062 | -123.43862 | 48 ft | 9 kts | 326° |
| 2026-05-03 21:53 | 48.65155 | -123.43921 | 47 ft | 15 kts | 12° |
| 2026-05-03 21:53 | 48.65141 | -123.43698 | 47 ft | 53 kts | 105° |
| 2026-05-03 21:54 | 48.64976 | -123.42858 | 90 ft | 105 kts | 104° |
| 2026-05-03 21:54 | 48.64738 | -123.41771 | 370 ft | 119 kts | 106° |
| 2026-05-03 21:54 | 48.64467 | -123.40529 | 641 ft | 129 kts | 105° |
| 2026-05-03 21:54 | 48.64156 | -123.39220 | 1033 ft | 134 kts | 107° |
| 2026-05-03 21:55 | 48.63846 | -123.37872 | 1440 ft | 137 kts | 107° |
| 2026-05-03 21:55 | 48.63538 | -123.36538 | 1930 ft | 133 kts | 107° |
| 2026-05-03 21:55 | 48.63244 | -123.35266 | 2452 ft | 122 kts | 105° |
| 2026-05-03 21:55 | 48.62973 | -123.34132 | 3006 ft | 107 kts | 105° |
| 2026-05-03 21:56 | 48.62747 | -123.33138 | 3527 ft | 92 kts | 106° |
| 2026-05-03 21:56 | 48.62588 | -123.32329 | 3939 ft | 74 kts | 83° |
| 2026-05-03 21:56 | 48.62736 | -123.31551 | 4116 ft | 84 kts | 61° |
| 2026-05-03 21:56 | 48.63098 | -123.30746 | 4320 ft | 103 kts | 57° |
| 2026-05-03 21:57 | 48.63529 | -123.29730 | 4483 ft | 129 kts | 56° |
| 2026-05-03 21:57 | 48.64023 | -123.28619 | 4899 ft | 113 kts | 54° |
| 2026-05-03 21:57 | 48.64466 | -123.27684 | 5349 ft | 118 kts | 54° |
| 2026-05-03 21:57 | 48.64970 | -123.26638 | 5685 ft | 120 kts | 53° |
| 2026-05-03 21:58 | 48.65439 | -123.25667 | 6194 ft | 116 kts | 53° |
| 2026-05-03 21:58 | 48.65940 | -123.24632 | 6534 ft | 121 kts | 53° |
| 2026-05-03 21:58 | 48.66420 | -123.23636 | 7001 ft | 117 kts | 53° |
| 2026-05-03 21:58 | 48.66856 | -123.22559 | 7341 ft | 121 kts | 72° |
| 2026-05-03 21:59 | 48.67184 | -123.21397 | 7723 ft | 121 kts | 58° |
| 2026-05-03 21:59 | 48.67624 | -123.20291 | 8112 ft | 124 kts | 58° |
| 2026-05-03 21:59 | 48.68086 | -123.19175 | 8497 ft | 126 kts | 57° |
| 2026-05-03 21:59 | 48.68561 | -123.18054 | 8880 ft | 128 kts | 57° |
| 2026-05-03 22:00 | 48.69047 | -123.16918 | 9266 ft | 129 kts | 57° |
| 2026-05-03 22:00 | 48.69539 | -123.15770 | 9660 ft | 131 kts | 56° |
| 2026-05-03 22:00 | 48.70036 | -123.14613 | 10029 ft | 131 kts | 56° |
| 2026-05-03 22:00 | 48.70533 | -123.13452 | 10382 ft | 131 kts | 56° |
| 2026-05-03 22:01 | 48.71021 | -123.12314 | 10740 ft | 130 kts | 57° |
| 2026-05-03 22:01 | 48.71514 | -123.11163 | 11093 ft | 131 kts | 57° |
| 2026-05-03 22:01 | 48.72029 | -123.09964 | 11350 ft | 140 kts | 56° |
| 2026-05-03 22:01 | 48.72571 | -123.08699 | 11603 ft | 146 kts | 56° |
| 2026-05-03 22:02 | 48.73130 | -123.07392 | 11859 ft | 150 kts | 56° |
| 2026-05-03 22:02 | 48.73707 | -123.06045 | 12116 ft | 154 kts | 56° |
| 2026-05-03 22:02 | 48.74292 | -123.04675 | 12377 ft | 156 kts | 56° |
| 2026-05-03 22:02 | 48.74881 | -123.03301 | 12620 ft | 158 kts | 56° |
| 2026-05-03 22:03 | 48.75482 | -123.01891 | 12886 ft | 160 kts | 55° |
| 2026-05-03 22:03 | 48.76089 | -123.00471 | 13142 ft | 161 kts | 56° |
| 2026-05-03 22:03 | 48.76701 | -122.99037 | 13409 ft | 162 kts | 55° |
| 2026-05-03 22:03 | 48.77315 | -122.97598 | 13671 ft | 164 kts | 55° |
| 2026-05-03 22:04 | 48.77908 | -122.96121 | 13910 ft | 165 kts | 63° |
| 2026-05-03 22:04 | 48.78208 | -122.94447 | 14191 ft | 163 kts | 75° |
| 2026-05-03 22:04 | 48.78479 | -122.92784 | 14479 ft | 162 kts | 72° |
| 2026-05-03 22:04 | 48.78784 | -122.91131 | 14737 ft | 163 kts | 71° |
| 2026-05-03 22:05 | 48.79099 | -122.89471 | 14996 ft | 164 kts | 71° |
| 2026-05-03 22:05 | 48.79415 | -122.87803 | 15265 ft | 165 kts | 71° |
| 2026-05-03 22:05 | 48.79732 | -122.86127 | 15514 ft | 166 kts | 71° |
| 2026-05-03 22:05 | 48.80052 | -122.84437 | 15761 ft | 167 kts | 71° |
| 2026-05-03 22:06 | 48.80373 | -122.82738 | 16009 ft | 168 kts | 71° |
| 2026-05-03 22:06 | 48.80695 | -122.81030 | 16251 ft | 169 kts | 71° |
| 2026-05-03 22:06 | 48.81019 | -122.79313 | 16499 ft | 170 kts | 71° |
| 2026-05-03 22:06 | 48.81341 | -122.77604 | 16696 ft | 174 kts | 71° |
| 2026-05-03 22:07 | 48.81684 | -122.75788 | 16829 ft | 179 kts | 71° |
| 2026-05-03 22:07 | 48.82026 | -122.73969 | 16963 ft | 183 kts | 71° |
| 2026-05-03 22:07 | 48.82381 | -122.72079 | 16993 ft | 190 kts | 70° |
| 2026-05-03 22:07 | 48.82750 | -122.70117 | 16988 ft | 196 kts | 71° |
| 2026-05-03 22:08 | 48.83127 | -122.68101 | 16988 ft | 200 kts | 71° |
| 2026-05-03 22:08 | 48.83509 | -122.66061 | 16991 ft | 201 kts | 70° |
| 2026-05-03 22:08 | 48.83893 | -122.64010 | 16989 ft | 202 kts | 71° |
| 2026-05-03 22:08 | 48.84276 | -122.61964 | 16987 ft | 200 kts | 71° |
| 2026-05-03 22:09 | 48.84652 | -122.59944 | 16987 ft | 198 kts | 71° |
| 2026-05-03 22:09 | 48.85024 | -122.57936 | 16986 ft | 197 kts | 71° |
| 2026-05-03 22:09 | 48.85398 | -122.55937 | 16988 ft | 197 kts | 71° |
| 2026-05-03 22:10 | 48.86139 | -122.51944 | 16985 ft | 196 kts | 71° |
| 2026-05-03 22:10 | 48.86506 | -122.49979 | 16982 ft | 196 kts | 71° |
| 2026-05-03 22:10 | 48.86879 | -122.47966 | 16984 ft | 195 kts | 71° |
| 2026-05-03 22:10 | 48.87247 | -122.45975 | 16984 ft | 196 kts | 71° |
| 2026-05-03 22:11 | 48.87610 | -122.44012 | 16987 ft | 196 kts | 71° |
| 2026-05-03 22:11 | 48.87981 | -122.42008 | 16986 ft | 197 kts | 71° |
| 2026-05-03 22:11 | 48.88351 | -122.39998 | 16988 ft | 197 kts | 71° |
| 2026-05-03 22:11 | 48.88722 | -122.37986 | 16972 ft | 197 kts | 70° |
| 2026-05-03 22:12 | 48.89092 | -122.35990 | 16972 ft | 196 kts | 71° |
| 2026-05-03 22:12 | 48.89462 | -122.33979 | 16970 ft | 198 kts | 71° |
| 2026-05-03 22:12 | 48.89828 | -122.31973 | 16970 ft | 197 kts | 71° |
| 2026-05-03 22:12 | 48.90197 | -122.29971 | 16966 ft | 196 kts | 70° |
| 2026-05-03 22:13 | 48.90562 | -122.27979 | 16965 ft | 196 kts | 70° |
| 2026-05-03 22:13 | 48.90924 | -122.26006 | 16951 ft | 190 kts | 70° |
| 2026-05-03 22:13 | 48.91275 | -122.24088 | 16956 ft | 187 kts | 71° |
| 2026-05-03 22:13 | 48.91616 | -122.22218 | 16957 ft | 184 kts | 71° |
| 2026-05-03 22:14 | 48.91958 | -122.20346 | 16955 ft | 183 kts | 70° |
| 2026-05-03 22:14 | 48.92299 | -122.18494 | 16972 ft | 182 kts | 71° |
| 2026-05-03 22:14 | 48.92631 | -122.16633 | 16963 ft | 182 kts | 69° |
| 2026-05-03 22:14 | 48.92977 | -122.14776 | 16955 ft | 182 kts | 69° |
| 2026-05-03 22:15 | 48.93312 | -122.12926 | 16959 ft | 182 kts | 70° |
| 2026-05-03 22:15 | 48.93645 | -122.11073 | 16961 ft | 181 kts | 70° |
| 2026-05-03 22:15 | 48.93984 | -122.09227 | 16958 ft | 181 kts | 69° |
| 2026-05-03 22:15 | 48.94320 | -122.07372 | 16965 ft | 183 kts | 71° |
| 2026-05-03 22:16 | 48.94657 | -122.05509 | 16960 ft | 182 kts | 71° |
| 2026-05-03 22:16 | 48.94991 | -122.03654 | 16960 ft | 179 kts | 70° |
| 2026-05-03 22:16 | 48.95323 | -122.01826 | 16975 ft | 181 kts | 70° |
| 2026-05-03 22:16 | 48.95659 | -121.99980 | 16966 ft | 181 kts | 70° |
| 2026-05-03 22:17 | 48.95991 | -121.98130 | 16962 ft | 181 kts | 70° |
| 2026-05-03 22:17 | 48.96324 | -121.96287 | 16978 ft | 180 kts | 69° |
| 2026-05-03 22:17 | 48.96656 | -121.94430 | 16958 ft | 182 kts | 70° |
| 2026-05-03 22:17 | 48.96987 | -121.92600 | 16961 ft | 182 kts | 71° |
| 2026-05-03 22:18 | 48.97321 | -121.90738 | 16966 ft | 182 kts | 71° |
| 2026-05-03 22:18 | 48.97653 | -121.88879 | 16961 ft | 181 kts | 69° |
| 2026-05-03 22:18 | 48.97987 | -121.87025 | 16964 ft | 182 kts | 71° |
| 2026-05-03 22:18 | 48.98320 | -121.85163 | 16965 ft | 182 kts | 69° |
| 2026-05-03 22:19 | 48.98656 | -121.83302 | 16962 ft | 182 kts | 70° |
| 2026-05-03 22:19 | 48.98990 | -121.81428 | 16959 ft | 184 kts | 70° |
| 2026-05-03 22:19 | 48.99329 | -121.79538 | 16962 ft | 186 kts | 72° |
| 2026-05-03 22:19 | 48.99666 | -121.77628 | 16964 ft | 187 kts | 70° |
| 2026-05-03 22:20 | 49.00002 | -121.75747 | 16970 ft | 186 kts | 72° |
| 2026-05-03 22:20 | 49.00340 | -121.73847 | 16965 ft | 185 kts | 70° |
| 2026-05-03 22:20 | 49.00677 | -121.71949 | 16957 ft | 186 kts | 71° |
| 2026-05-03 22:20 | 49.01012 | -121.70061 | 16971 ft | 185 kts | 69° |
| 2026-05-03 22:21 | 49.01353 | -121.68148 | 16971 ft | 189 kts | 71° |
| 2026-05-03 22:21 | 49.01698 | -121.66209 | 16968 ft | 189 kts | 70° |
| 2026-05-03 22:21 | 49.02035 | -121.64297 | 16966 ft | 186 kts | 70° |
| 2026-05-03 22:21 | 49.02370 | -121.62403 | 16964 ft | 184 kts | 70° |
| 2026-05-03 22:22 | 49.02704 | -121.60515 | 16965 ft | 185 kts | 71° |
| 2026-05-03 22:22 | 49.03038 | -121.58620 | 16969 ft | 186 kts | 71° |
| 2026-05-03 22:22 | 49.03375 | -121.56710 | 16968 ft | 186 kts | 71° |
| 2026-05-03 22:22 | 49.03705 | -121.54835 | 16966 ft | 186 kts | 70° |
| 2026-05-03 22:23 | 49.04040 | -121.52932 | 16967 ft | 186 kts | 71° |
| 2026-05-03 22:23 | 49.04375 | -121.51025 | 16964 ft | 187 kts | 70° |
| 2026-05-03 22:23 | 49.04710 | -121.49123 | 16962 ft | 185 kts | 70° |
| 2026-05-03 22:23 | 49.05042 | -121.47229 | 16965 ft | 185 kts | 71° |
| 2026-05-03 22:24 | 49.05376 | -121.45323 | 16965 ft | 187 kts | 71° |
| 2026-05-03 22:24 | 49.05712 | -121.43406 | 16963 ft | 187 kts | 71° |
| 2026-05-03 22:24 | 49.06046 | -121.41492 | 16963 ft | 187 kts | 72° |
| 2026-05-03 22:24 | 49.06384 | -121.39588 | 16956 ft | 185 kts | 70° |
| 2026-05-03 22:25 | 49.06881 | -121.37801 | 16954 ft | 183 kts | 63° |
| 2026-05-03 22:25 | 49.07386 | -121.36012 | 16947 ft | 183 kts | 63° |
| 2026-05-03 22:25 | 49.07886 | -121.34218 | 16952 ft | 184 kts | 63° |
| 2026-05-03 22:25 | 49.08390 | -121.32428 | 16955 ft | 184 kts | 64° |
| 2026-05-03 22:26 | 49.08897 | -121.30628 | 16952 ft | 185 kts | 64° |
| 2026-05-03 22:26 | 49.09403 | -121.28828 | 16953 ft | 184 kts | 63° |
| 2026-05-03 22:26 | 49.09910 | -121.27025 | 16955 ft | 186 kts | 63° |
| 2026-05-03 22:26 | 49.10418 | -121.25215 | 16952 ft | 185 kts | 64° |
| 2026-05-03 22:27 | 49.10924 | -121.23407 | 16954 ft | 185 kts | 63° |
| 2026-05-03 22:27 | 49.11432 | -121.21599 | 16955 ft | 185 kts | 63° |
| 2026-05-03 22:27 | 49.11939 | -121.19788 | 16954 ft | 186 kts | 63° |
| 2026-05-03 22:27 | 49.12439 | -121.17999 | 16953 ft | 185 kts | 63° |
| 2026-05-03 22:28 | 49.12942 | -121.16199 | 16959 ft | 184 kts | 63° |
| 2026-05-03 22:28 | 49.13447 | -121.14394 | 16960 ft | 185 kts | 63° |
| 2026-05-03 22:28 | 49.13950 | -121.12590 | 16961 ft | 185 kts | 63° |
| 2026-05-03 22:28 | 49.14455 | -121.10782 | 16960 ft | 185 kts | 64° |
| 2026-05-03 22:29 | 49.14963 | -121.08960 | 16961 ft | 187 kts | 64° |
| 2026-05-03 22:29 | 49.15473 | -121.07130 | 16962 ft | 187 kts | 64° |
| 2026-05-03 22:29 | 49.15979 | -121.05307 | 16949 ft | 184 kts | 64° |
| 2026-05-03 22:29 | 49.16478 | -121.03516 | 16948 ft | 183 kts | 64° |
| 2026-05-03 22:30 | 49.16976 | -121.01723 | 16963 ft | 183 kts | 63° |
| 2026-05-03 22:30 | 49.17472 | -120.99944 | 16994 ft | 182 kts | 64° |
| 2026-05-03 22:30 | 49.17967 | -120.98151 | 16995 ft | 184 kts | 64° |
| 2026-05-03 22:30 | 49.18470 | -120.96340 | 16994 ft | 184 kts | 63° |
| 2026-05-03 22:31 | 49.18970 | -120.94533 | 16998 ft | 185 kts | 64° |
| 2026-05-03 22:31 | 49.19464 | -120.92754 | 17005 ft | 185 kts | 64° |
| 2026-05-03 22:31 | 49.19971 | -120.90921 | 17000 ft | 185 kts | 64° |
| 2026-05-03 22:31 | 49.20473 | -120.89101 | 16999 ft | 186 kts | 64° |
| 2026-05-03 22:32 | 49.20971 | -120.87299 | 16999 ft | 186 kts | 64° |
| 2026-05-03 22:32 | 49.21475 | -120.85474 | 17008 ft | 187 kts | 64° |
| 2026-05-03 22:32 | 49.21979 | -120.83645 | 17011 ft | 186 kts | 64° |
| 2026-05-03 22:32 | 49.22485 | -120.81808 | 17009 ft | 187 kts | 64° |
| 2026-05-03 22:33 | 49.22988 | -120.79985 | 17004 ft | 185 kts | 64° |
| 2026-05-03 22:33 | 49.23486 | -120.78174 | 17005 ft | 184 kts | 64° |
| 2026-05-03 22:33 | 49.23982 | -120.76368 | 17007 ft | 185 kts | 64° |
| 2026-05-03 22:33 | 49.24482 | -120.74552 | 17013 ft | 185 kts | 64° |
| 2026-05-03 22:34 | 49.24982 | -120.72728 | 17013 ft | 186 kts | 64° |
| 2026-05-03 22:34 | 49.25484 | -120.70901 | 17024 ft | 186 kts | 64° |
| 2026-05-03 22:34 | 49.25983 | -120.69077 | 17023 ft | 185 kts | 63° |
| 2026-05-03 22:34 | 49.26475 | -120.67281 | 17021 ft | 185 kts | 63° |
| 2026-05-03 22:35 | 49.26974 | -120.65457 | 17022 ft | 186 kts | 64° |
| 2026-05-03 22:35 | 49.27473 | -120.63632 | 17023 ft | 186 kts | 63° |
| 2026-05-03 22:35 | 49.27972 | -120.61808 | 17021 ft | 185 kts | 63° |
| 2026-05-03 22:35 | 49.28469 | -120.59991 | 17020 ft | 186 kts | 63° |
| 2026-05-03 22:36 | 49.28965 | -120.58168 | 17023 ft | 185 kts | 63° |
| 2026-05-03 22:36 | 49.29293 | -120.56961 | 17024 ft | 185 kts | 64° |
| 2026-05-03 22:36 | 49.29791 | -120.55138 | 17028 ft | 185 kts | 64° |
| 2026-05-03 22:36 | 49.30288 | -120.53311 | 17020 ft | 185 kts | 63° |
| 2026-05-03 22:37 | 49.30783 | -120.51483 | 17027 ft | 187 kts | 64° |
| 2026-05-03 22:37 | 49.31288 | -120.49636 | 17020 ft | 188 kts | 64° |
| 2026-05-03 22:37 | 49.31788 | -120.47795 | 17019 ft | 186 kts | 63° |
| 2026-05-03 22:37 | 49.32286 | -120.45969 | 17018 ft | 186 kts | 64° |
| 2026-05-03 22:38 | 49.32780 | -120.44136 | 17023 ft | 186 kts | 64° |
| 2026-05-03 22:38 | 49.33279 | -120.42303 | 17026 ft | 186 kts | 63° |
| 2026-05-03 22:38 | 49.33773 | -120.40470 | 17025 ft | 186 kts | 64° |
| 2026-05-03 22:38 | 49.34271 | -120.38631 | 17018 ft | 186 kts | 64° |
| 2026-05-03 22:39 | 49.34764 | -120.36808 | 17020 ft | 186 kts | 64° |
| 2026-05-03 22:39 | 49.35253 | -120.34998 | 17019 ft | 186 kts | 64° |
| 2026-05-03 22:39 | 49.35747 | -120.33167 | 17020 ft | 186 kts | 64° |
| 2026-05-03 22:39 | 49.36241 | -120.31333 | 17029 ft | 185 kts | 62° |
| 2026-05-03 22:40 | 49.36734 | -120.29509 | 17026 ft | 185 kts | 64° |
| 2026-05-03 22:40 | 49.37222 | -120.27694 | 17027 ft | 184 kts | 64° |
| 2026-05-03 22:40 | 49.37712 | -120.25874 | 17029 ft | 184 kts | 62° |
| 2026-05-03 22:40 | 49.38202 | -120.24049 | 17027 ft | 185 kts | 63° |
| 2026-05-03 22:41 | 49.38695 | -120.22221 | 17027 ft | 186 kts | 64° |
| 2026-05-03 22:41 | 49.39187 | -120.20382 | 17030 ft | 186 kts | 63° |
| 2026-05-03 22:41 | 49.39680 | -120.18547 | 17022 ft | 185 kts | 64° |
| 2026-05-03 22:41 | 49.40169 | -120.16718 | 17024 ft | 185 kts | 62° |
| 2026-05-03 22:42 | 49.40660 | -120.14886 | 17024 ft | 185 kts | 62° |
| 2026-05-03 22:42 | 49.41148 | -120.13062 | 17023 ft | 184 kts | 64° |
| 2026-05-03 22:42 | 49.41628 | -120.11270 | 17022 ft | 184 kts | 64° |
| 2026-05-03 22:42 | 49.42113 | -120.09449 | 17022 ft | 184 kts | 63° |
| 2026-05-03 22:43 | 49.42599 | -120.07632 | 17020 ft | 183 kts | 63° |
| 2026-05-03 22:43 | 49.43081 | -120.05822 | 17022 ft | 183 kts | 64° |
| 2026-05-03 22:43 | 49.43563 | -120.04016 | 17022 ft | 182 kts | 63° |
| 2026-05-03 22:43 | 49.44045 | -120.02206 | 17022 ft | 183 kts | 64° |
| 2026-05-03 22:44 | 49.44528 | -120.00392 | 17020 ft | 184 kts | 63° |
| 2026-05-03 22:44 | 49.45012 | -119.98573 | 17003 ft | 184 kts | 62° |
| 2026-05-03 22:44 | 49.45496 | -119.96753 | 16999 ft | 184 kts | 63° |
| 2026-05-03 22:44 | 49.45981 | -119.94930 | 16999 ft | 184 kts | 64° |
| 2026-05-03 22:45 | 49.46463 | -119.93105 | 17001 ft | 184 kts | 64° |
| 2026-05-03 22:45 | 49.46951 | -119.91268 | 16993 ft | 186 kts | 64° |
| 2026-05-03 22:45 | 49.47441 | -119.89425 | 16990 ft | 186 kts | 64° |
| 2026-05-03 22:45 | 49.47928 | -119.87576 | 16993 ft | 186 kts | 63° |
| 2026-05-03 22:46 | 49.48411 | -119.85748 | 16989 ft | 187 kts | 63° |
| 2026-05-03 22:46 | 49.48903 | -119.83891 | 16988 ft | 188 kts | 64° |
| 2026-05-03 22:46 | 49.49394 | -119.82032 | 16988 ft | 188 kts | 63° |
| 2026-05-03 22:46 | 49.49886 | -119.80168 | 16987 ft | 188 kts | 63° |
| 2026-05-03 22:47 | 49.50376 | -119.78303 | 16985 ft | 188 kts | 64° |
| 2026-05-03 22:47 | 49.50869 | -119.76431 | 16985 ft | 188 kts | 64° |
| 2026-05-03 22:47 | 49.51353 | -119.74591 | 16983 ft | 187 kts | 64° |
| 2026-05-03 22:47 | 49.51842 | -119.72732 | 16983 ft | 188 kts | 64° |
| 2026-05-03 22:48 | 49.52333 | -119.70863 | 16981 ft | 188 kts | 64° |
| 2026-05-03 22:48 | 49.52824 | -119.68994 | 16981 ft | 188 kts | 64° |
| 2026-05-03 22:48 | 49.53316 | -119.67125 | 16980 ft | 188 kts | 63° |
| 2026-05-03 22:48 | 49.53804 | -119.65257 | 16980 ft | 188 kts | 63° |
| 2026-05-03 22:49 | 49.54294 | -119.63389 | 16980 ft | 188 kts | 64° |
| 2026-05-03 22:49 | 49.54782 | -119.61523 | 16978 ft | 187 kts | 64° |
| 2026-05-03 22:49 | 49.55267 | -119.59664 | 16978 ft | 187 kts | 63° |
| 2026-05-03 22:49 | 49.55752 | -119.57810 | 16978 ft | 187 kts | 63° |
| 2026-05-03 22:50 | 49.56231 | -119.55974 | 16980 ft | 187 kts | 64° |
| 2026-05-03 22:50 | 49.56721 | -119.54097 | 16980 ft | 187 kts | 64° |
| 2026-05-03 22:50 | 49.57199 | -119.52262 | 16982 ft | 186 kts | 64° |
| 2026-05-03 22:50 | 49.57681 | -119.50416 | 16982 ft | 186 kts | 62° |
| 2026-05-03 22:51 | 49.58164 | -119.48558 | 16984 ft | 186 kts | 61° |
| 2026-05-03 22:51 | 49.58644 | -119.46706 | 16983 ft | 186 kts | 62° |
| 2026-05-03 22:51 | 49.59125 | -119.44862 | 16982 ft | 185 kts | 64° |
| 2026-05-03 22:51 | 49.59603 | -119.43018 | 16985 ft | 185 kts | 63° |
| 2026-05-03 22:52 | 49.60082 | -119.41173 | 16986 ft | 186 kts | 63° |
| 2026-05-03 22:52 | 49.60564 | -119.39314 | 16985 ft | 187 kts | 64° |
| 2026-05-03 22:52 | 49.61044 | -119.37456 | 16982 ft | 186 kts | 63° |
| 2026-05-03 22:52 | 49.61521 | -119.35611 | 16986 ft | 185 kts | 63° |
| 2026-05-03 22:53 | 49.61997 | -119.33769 | 16988 ft | 186 kts | 63° |
| 2026-05-03 22:53 | 49.62477 | -119.31914 | 16987 ft | 186 kts | 63° |
| 2026-05-03 22:53 | 49.62956 | -119.30063 | 16990 ft | 186 kts | 63° |
| 2026-05-03 22:53 | 49.63433 | -119.28205 | 17000 ft | 187 kts | 64° |
| 2026-05-03 22:54 | 49.63915 | -119.26333 | 17002 ft | 187 kts | 64° |
| 2026-05-03 22:54 | 49.64398 | -119.24464 | 17001 ft | 187 kts | 64° |
| 2026-05-03 22:54 | 49.64879 | -119.22599 | 17004 ft | 187 kts | 64° |
| 2026-05-03 22:54 | 49.65358 | -119.20730 | 17005 ft | 187 kts | 63° |
| 2026-05-03 22:55 | 49.65828 | -119.18891 | 17000 ft | 186 kts | 62° |
| 2026-05-03 22:55 | 49.66307 | -119.17034 | 17001 ft | 186 kts | 62° |
| 2026-05-03 22:55 | 49.66784 | -119.15175 | 17003 ft | 186 kts | 64° |
| 2026-05-03 22:55 | 49.67260 | -119.13313 | 17018 ft | 186 kts | 63° |
| 2026-05-03 22:56 | 49.67739 | -119.11446 | 17011 ft | 186 kts | 63° |
| 2026-05-03 22:56 | 49.68214 | -119.09585 | 17014 ft | 186 kts | 62° |
| 2026-05-03 22:56 | 49.68691 | -119.07722 | 17014 ft | 187 kts | 62° |
| 2026-05-03 22:56 | 49.69169 | -119.05852 | 17012 ft | 188 kts | 64° |
| 2026-05-03 22:57 | 49.69646 | -119.03977 | 17009 ft | 187 kts | 64° |
| 2026-05-03 22:57 | 49.70122 | -119.02107 | 17010 ft | 187 kts | 62° |
| 2026-05-03 22:57 | 49.70599 | -119.00236 | 17010 ft | 187 kts | 62° |
| 2026-05-03 22:57 | 49.71076 | -118.98362 | 17012 ft | 188 kts | 63° |
| 2026-05-03 22:58 | 49.71547 | -118.96508 | 17023 ft | 188 kts | 64° |
| 2026-05-03 22:58 | 49.72025 | -118.94631 | 17020 ft | 187 kts | 64° |
| 2026-05-03 22:58 | 49.72499 | -118.92764 | 17016 ft | 185 kts | 64° |
| 2026-05-03 22:58 | 49.72967 | -118.90912 | 17019 ft | 185 kts | 61° |
| 2026-05-03 22:59 | 49.73439 | -118.89052 | 17019 ft | 186 kts | 64° |
| 2026-05-03 22:59 | 49.73911 | -118.87190 | 17021 ft | 186 kts | 62° |
| 2026-05-03 22:59 | 49.74383 | -118.85322 | 17020 ft | 187 kts | 62° |
| 2026-05-03 22:59 | 49.74857 | -118.83454 | 17023 ft | 187 kts | 62° |
| 2026-05-03 23:00 | 49.75326 | -118.81590 | 17025 ft | 185 kts | 64° |
| 2026-05-03 23:00 | 49.75796 | -118.79726 | 17025 ft | 186 kts | 62° |
| 2026-05-03 23:00 | 49.76268 | -118.77864 | 17026 ft | 186 kts | 64° |
| 2026-05-03 23:00 | 49.76739 | -118.75991 | 17025 ft | 187 kts | 62° |
| 2026-05-03 23:01 | 49.77210 | -118.74116 | 17030 ft | 187 kts | 62° |
| 2026-05-03 23:01 | 49.77680 | -118.72254 | 17029 ft | 188 kts | 63° |
| 2026-05-03 23:01 | 49.78157 | -118.70360 | 17027 ft | 189 kts | 63° |
| 2026-05-03 23:01 | 49.78632 | -118.68465 | 17028 ft | 189 kts | 62° |
| 2026-05-03 23:02 | 49.79107 | -118.66572 | 17026 ft | 189 kts | 64° |
| 2026-05-03 23:02 | 49.79582 | -118.64679 | 17025 ft | 189 kts | 61° |
| 2026-05-03 23:02 | 49.80058 | -118.62781 | 17024 ft | 190 kts | 62° |
| 2026-05-03 23:02 | 49.80535 | -118.60878 | 17024 ft | 191 kts | 64° |
| 2026-05-03 23:03 | 49.81014 | -118.58958 | 17023 ft | 191 kts | 62° |
| 2026-05-03 23:03 | 49.81493 | -118.57041 | 17023 ft | 191 kts | 62° |
| 2026-05-03 23:03 | 49.81972 | -118.55126 | 17023 ft | 191 kts | 62° |
| 2026-05-03 23:03 | 49.82450 | -118.53202 | 17021 ft | 191 kts | 63° |
| 2026-05-03 23:04 | 49.82927 | -118.51279 | 17024 ft | 191 kts | 62° |
| 2026-05-03 23:04 | 49.83404 | -118.49381 | 17012 ft | 188 kts | 63° |
| 2026-05-03 23:04 | 49.83871 | -118.47489 | 17013 ft | 188 kts | 62° |
| 2026-05-03 23:04 | 49.84342 | -118.45603 | 17014 ft | 188 kts | 62° |
| 2026-05-03 23:05 | 49.84812 | -118.43712 | 17013 ft | 188 kts | 64° |
| 2026-05-03 23:05 | 49.85276 | -118.41836 | 17013 ft | 189 kts | 63° |
| 2026-05-03 23:05 | 49.85747 | -118.39938 | 17010 ft | 188 kts | 62° |
| 2026-05-03 23:05 | 49.86218 | -118.38042 | 17012 ft | 188 kts | 62° |
| 2026-05-03 23:06 | 49.86686 | -118.36151 | 17014 ft | 188 kts | 62° |
| 2026-05-03 23:06 | 49.87157 | -118.34255 | 17013 ft | 188 kts | 63° |
| 2026-05-03 23:06 | 49.87624 | -118.32359 | 17013 ft | 189 kts | 63° |
| 2026-05-03 23:06 | 49.88096 | -118.30445 | 17009 ft | 191 kts | 63° |
| 2026-05-03 23:07 | 49.88572 | -118.28517 | 17011 ft | 192 kts | 63° |
| 2026-05-03 23:07 | 49.89049 | -118.26578 | 17008 ft | 192 kts | 63° |
| 2026-05-03 23:07 | 49.89526 | -118.24645 | 17007 ft | 192 kts | 63° |
| 2026-05-03 23:07 | 49.90001 | -118.22711 | 17010 ft | 192 kts | 63° |
| 2026-05-03 23:08 | 49.90476 | -118.20780 | 17007 ft | 192 kts | 63° |
| 2026-05-03 23:08 | 49.90952 | -118.18846 | 17014 ft | 192 kts | 63° |
| 2026-05-03 23:08 | 49.91427 | -118.16905 | 17014 ft | 193 kts | 63° |
| 2026-05-03 23:08 | 49.91906 | -118.14955 | 17013 ft | 193 kts | 63° |
| 2026-05-03 23:09 | 49.92383 | -118.13006 | 17003 ft | 193 kts | 63° |
| 2026-05-03 23:09 | 49.92858 | -118.11065 | 17003 ft | 192 kts | 63° |
| 2026-05-03 23:09 | 49.93328 | -118.09143 | 17004 ft | 192 kts | 63° |
| 2026-05-03 23:09 | 49.93802 | -118.07202 | 17001 ft | 192 kts | 63° |
| 2026-05-03 23:10 | 49.94274 | -118.05268 | 17002 ft | 191 kts | 63° |
| 2026-05-03 23:10 | 49.94745 | -118.03341 | 16996 ft | 191 kts | 63° |
| 2026-05-03 23:10 | 49.95215 | -118.01411 | 17001 ft | 190 kts | 63° |
| 2026-05-03 23:10 | 49.95683 | -117.99487 | 16996 ft | 191 kts | 63° |
| 2026-05-03 23:11 | 49.96153 | -117.97555 | 16998 ft | 191 kts | 63° |
| 2026-05-03 23:11 | 49.96622 | -117.95625 | 16994 ft | 191 kts | 63° |
| 2026-05-03 23:11 | 49.97085 | -117.93721 | 17000 ft | 191 kts | 63° |
| 2026-05-03 23:11 | 49.97553 | -117.91790 | 16996 ft | 191 kts | 63° |
| 2026-05-03 23:12 | 49.98021 | -117.89860 | 16999 ft | 191 kts | 63° |
| 2026-05-03 23:12 | 49.98490 | -117.87923 | 16994 ft | 191 kts | 63° |
| 2026-05-03 23:12 | 49.98957 | -117.85993 | 17002 ft | 191 kts | 64° |
| 2026-05-03 23:12 | 49.99426 | -117.84057 | 16983 ft | 188 kts | 63° |
| 2026-05-03 23:13 | 49.99876 | -117.82179 | 17006 ft | 187 kts | 63° |
| 2026-05-03 23:13 | 50.00341 | -117.80267 | 17005 ft | 190 kts | 63° |
| 2026-05-03 23:13 | 50.00808 | -117.78333 | 17004 ft | 192 kts | 63° |
| 2026-05-03 23:13 | 50.01278 | -117.76378 | 17011 ft | 193 kts | 64° |
| 2026-05-03 23:14 | 50.01750 | -117.74418 | 17016 ft | 194 kts | 64° |
| 2026-05-03 23:14 | 50.02218 | -117.72475 | 17003 ft | 194 kts | 64° |
| 2026-05-03 23:14 | 50.02689 | -117.70507 | 17010 ft | 194 kts | 64° |
| 2026-05-03 23:14 | 50.03163 | -117.68534 | 17008 ft | 195 kts | 64° |
| 2026-05-03 23:15 | 50.03636 | -117.66562 | 17007 ft | 194 kts | 64° |
| 2026-05-03 23:15 | 50.04107 | -117.64596 | 16997 ft | 193 kts | 63° |
| 2026-05-03 23:15 | 50.04577 | -117.62638 | 17001 ft | 192 kts | 63° |
| 2026-05-03 23:15 | 50.05041 | -117.60691 | 17001 ft | 193 kts | 63° |
| 2026-05-03 23:16 | 50.05516 | -117.58717 | 17001 ft | 196 kts | 64° |
| 2026-05-03 23:16 | 50.05985 | -117.56754 | 17008 ft | 197 kts | 64° |
| 2026-05-03 23:16 | 50.06458 | -117.54755 | 17005 ft | 195 kts | 64° |
| 2026-05-03 23:16 | 50.06933 | -117.52768 | 17010 ft | 197 kts | 64° |
| 2026-05-03 23:17 | 50.07406 | -117.50783 | 17003 ft | 192 kts | 63° |
| 2026-05-03 23:17 | 50.07874 | -117.48823 | 16999 ft | 193 kts | 64° |
| 2026-05-03 23:17 | 50.08339 | -117.46856 | 16999 ft | 195 kts | 63° |
| 2026-05-03 23:17 | 50.08810 | -117.44875 | 16996 ft | 195 kts | 63° |
| 2026-05-03 23:18 | 50.09289 | -117.42864 | 17002 ft | 199 kts | 64° |
| 2026-05-03 23:18 | 50.09768 | -117.40840 | 17001 ft | 201 kts | 64° |
| 2026-05-03 23:18 | 50.10252 | -117.38795 | 16999 ft | 202 kts | 63° |
| 2026-05-03 23:18 | 50.10739 | -117.36737 | 17001 ft | 204 kts | 64° |
| 2026-05-03 23:19 | 50.11232 | -117.34652 | 16998 ft | 205 kts | 64° |
| 2026-05-03 23:19 | 50.11721 | -117.32576 | 17002 ft | 204 kts | 64° |
| 2026-05-03 23:19 | 50.12214 | -117.30487 | 16996 ft | 206 kts | 64° |
| 2026-05-03 23:19 | 50.12708 | -117.28395 | 16996 ft | 206 kts | 64° |
| 2026-05-03 23:20 | 50.13193 | -117.26321 | 16992 ft | 206 kts | 64° |
| 2026-05-03 23:20 | 50.13693 | -117.24222 | 16997 ft | 207 kts | 63° |
| 2026-05-03 23:20 | 50.14186 | -117.22102 | 16987 ft | 208 kts | 64° |
| 2026-05-03 23:20 | 50.14683 | -117.19990 | 16987 ft | 208 kts | 64° |
| 2026-05-03 23:21 | 50.15181 | -117.17870 | 16984 ft | 208 kts | 64° |
| 2026-05-03 23:21 | 50.15678 | -117.15746 | 16984 ft | 209 kts | 64° |
| 2026-05-03 23:21 | 50.16175 | -117.13622 | 16970 ft | 207 kts | 64° |
| 2026-05-03 23:21 | 50.16666 | -117.11526 | 16982 ft | 205 kts | 64° |
| 2026-05-03 23:22 | 50.17648 | -117.07317 | 16988 ft | 207 kts | 64° |
| 2026-05-03 23:22 | 50.17974 | -117.05920 | 16989 ft | 207 kts | 64° |
| 2026-05-03 23:22 | 50.18467 | -117.03805 | 16980 ft | 207 kts | 64° |
| 2026-05-03 23:23 | 50.18958 | -117.01697 | 16977 ft | 206 kts | 64° |
| 2026-05-03 23:23 | 50.19429 | -116.99637 | 16985 ft | 203 kts | 63° |
| 2026-05-03 23:23 | 50.19900 | -116.97616 | 16995 ft | 197 kts | 64° |
| 2026-05-03 23:23 | 50.20533 | -116.94924 | 17001 ft | 201 kts | 64° |
| 2026-05-03 23:24 | 50.20856 | -116.93533 | 16995 ft | 203 kts | 64° |
| 2026-05-03 23:24 | 50.21329 | -116.91487 | 16994 ft | 198 kts | 64° |
| 2026-05-03 23:24 | 50.21801 | -116.89441 | 16994 ft | 201 kts | 64° |
| 2026-05-03 23:24 | 50.22280 | -116.87370 | 16999 ft | 204 kts | 64° |
| 2026-05-03 23:25 | 50.22766 | -116.85269 | 17007 ft | 206 kts | 64° |
| 2026-05-03 23:25 | 50.23247 | -116.83181 | 17008 ft | 207 kts | 64° |
| 2026-05-03 23:25 | 50.23740 | -116.81040 | 17012 ft | 207 kts | 64° |
| 2026-05-03 23:25 | 50.24223 | -116.78943 | 17009 ft | 207 kts | 64° |
| 2026-05-03 23:26 | 50.24710 | -116.76824 | 17009 ft | 207 kts | 64° |
| 2026-05-03 23:26 | 50.25198 | -116.74703 | 17008 ft | 208 kts | 64° |
| 2026-05-03 23:26 | 50.25686 | -116.72578 | 17009 ft | 208 kts | 64° |
| 2026-05-03 23:26 | 50.26175 | -116.70447 | 17009 ft | 208 kts | 64° |
| 2026-05-03 23:27 | 50.26664 | -116.68310 | 17037 ft | 209 kts | 64° |
| 2026-05-03 23:27 | 50.27153 | -116.66175 | 17028 ft | 209 kts | 63° |
| 2026-05-03 23:27 | 50.27640 | -116.64043 | 17027 ft | 208 kts | 63° |
| 2026-05-03 23:27 | 50.28126 | -116.61919 | 17029 ft | 207 kts | 63° |
| 2026-05-03 23:28 | 50.28608 | -116.59808 | 17028 ft | 206 kts | 64° |
| 2026-05-03 23:28 | 50.29087 | -116.57709 | 17021 ft | 210 kts | 63° |
| 2026-05-03 23:28 | 50.29576 | -116.55569 | 17020 ft | 208 kts | 64° |
| 2026-05-03 23:28 | 50.30056 | -116.53437 | 17023 ft | 208 kts | 64° |
| 2026-05-03 23:29 | 50.30543 | -116.51306 | 17034 ft | 206 kts | 64° |
| 2026-05-03 23:29 | 50.31025 | -116.49188 | 17033 ft | 208 kts | 64° |
| 2026-05-03 23:29 | 50.31510 | -116.47050 | 17033 ft | 208 kts | 64° |
| 2026-05-03 23:29 | 50.31995 | -116.44912 | 17031 ft | 207 kts | 64° |
| 2026-05-03 23:30 | 50.32475 | -116.42788 | 17034 ft | 207 kts | 64° |
| 2026-05-03 23:30 | 50.32956 | -116.40661 | 17030 ft | 208 kts | 64° |
| 2026-05-03 23:30 | 50.33431 | -116.38558 | 17030 ft | 207 kts | 64° |
| 2026-05-03 23:30 | 50.33911 | -116.36432 | 17031 ft | 207 kts | 64° |
| 2026-05-03 23:31 | 50.34391 | -116.34307 | 17016 ft | 206 kts | 64° |
| 2026-05-03 23:31 | 50.34865 | -116.32198 | 17019 ft | 205 kts | 63° |
| 2026-05-03 23:31 | 50.35341 | -116.30088 | 17007 ft | 205 kts | 64° |
| 2026-05-03 23:31 | 50.35807 | -116.28012 | 17018 ft | 199 kts | 63° |
| 2026-05-03 23:32 | 50.36274 | -116.25937 | 17019 ft | 205 kts | 63° |
| 2026-05-03 23:32 | 50.36749 | -116.23821 | 17017 ft | 206 kts | 63° |
| 2026-05-03 23:32 | 50.37216 | -116.21733 | 17016 ft | 206 kts | 63° |
| 2026-05-03 23:32 | 50.37692 | -116.19609 | 17014 ft | 208 kts | 63° |
| 2026-05-03 23:33 | 50.38171 | -116.17469 | 16987 ft | 208 kts | 63° |
| 2026-05-03 23:33 | 50.38651 | -116.15326 | 16992 ft | 209 kts | 63° |
| 2026-05-03 23:33 | 50.39130 | -116.13159 | 16990 ft | 212 kts | 64° |
| 2026-05-03 23:33 | 50.39610 | -116.11012 | 16981 ft | 206 kts | 63° |
| 2026-05-03 23:34 | 50.40080 | -116.08896 | 16993 ft | 206 kts | 63° |
| 2026-05-03 23:34 | 50.40553 | -116.06772 | 16990 ft | 208 kts | 63° |
| 2026-05-03 23:34 | 50.41031 | -116.04620 | 16987 ft | 209 kts | 64° |
| 2026-05-03 23:34 | 50.41506 | -116.02472 | 16992 ft | 209 kts | 63° |
| 2026-05-03 23:35 | 50.41983 | -116.00317 | 16973 ft | 209 kts | 63° |
| 2026-05-03 23:35 | 50.42459 | -115.98165 | 16972 ft | 209 kts | 63° |
| 2026-05-03 23:35 | 50.42928 | -115.96043 | 16993 ft | 208 kts | 63° |
| 2026-05-03 23:35 | 50.43403 | -115.93892 | 16993 ft | 209 kts | 63° |
| 2026-05-03 23:36 | 50.43878 | -115.91736 | 16990 ft | 209 kts | 63° |
| 2026-05-03 23:36 | 50.44353 | -115.89580 | 16990 ft | 209 kts | 63° |
| 2026-05-03 23:36 | 50.44828 | -115.87423 | 16996 ft | 210 kts | 64° |
| 2026-05-03 23:36 | 50.45306 | -115.85273 | 16991 ft | 207 kts | 63° |
| 2026-05-03 23:37 | 50.45773 | -115.83120 | 16995 ft | 210 kts | 63° |
| 2026-05-03 23:37 | 50.46248 | -115.80949 | 16987 ft | 210 kts | 63° |
| 2026-05-03 23:37 | 50.46715 | -115.78817 | 16997 ft | 206 kts | 63° |
| 2026-05-03 23:37 | 50.47188 | -115.76666 | 16996 ft | 210 kts | 63° |
| 2026-05-03 23:38 | 50.47660 | -115.74511 | 17001 ft | 212 kts | 63° |
| 2026-05-03 23:38 | 50.48138 | -115.72316 | 16997 ft | 213 kts | 63° |
| 2026-05-03 23:38 | 50.48614 | -115.70127 | 17000 ft | 211 kts | 63° |
| 2026-05-03 23:38 | 50.49091 | -115.67940 | 17003 ft | 211 kts | 63° |
| 2026-05-03 23:39 | 50.49567 | -115.65757 | 17003 ft | 211 kts | 63° |
| 2026-05-03 23:39 | 50.50043 | -115.63571 | 17004 ft | 211 kts | 63° |
| 2026-05-03 23:39 | 50.50518 | -115.61382 | 17004 ft | 212 kts | 63° |
| 2026-05-03 23:39 | 50.50993 | -115.59189 | 17005 ft | 212 kts | 63° |
| 2026-05-03 23:40 | 50.51470 | -115.56992 | 17006 ft | 213 kts | 63° |
| 2026-05-03 23:40 | 50.51948 | -115.54785 | 17002 ft | 214 kts | 63° |
| 2026-05-03 23:40 | 50.52422 | -115.52597 | 17006 ft | 214 kts | 64° |
| 2026-05-03 23:40 | 50.52900 | -115.50380 | 17016 ft | 214 kts | 64° |
| 2026-05-03 23:41 | 50.53376 | -115.48174 | 17013 ft | 213 kts | 63° |
| 2026-05-03 23:41 | 50.53852 | -115.45966 | 17011 ft | 212 kts | 63° |
| 2026-05-03 23:41 | 50.54323 | -115.43778 | 17008 ft | 210 kts | 63° |
| 2026-05-03 23:41 | 50.54794 | -115.41587 | 17020 ft | 213 kts | 63° |
| 2026-05-03 23:42 | 50.55272 | -115.39369 | 17013 ft | 213 kts | 63° |
| 2026-05-03 23:42 | 50.55745 | -115.37152 | 17011 ft | 214 kts | 63° |
| 2026-05-03 23:42 | 50.56218 | -115.34939 | 17028 ft | 213 kts | 65° |
| 2026-05-03 23:42 | 50.56681 | -115.32746 | 17009 ft | 213 kts | 63° |
| 2026-05-03 23:43 | 50.57167 | -115.30542 | 17014 ft | 213 kts | 63° |
| 2026-05-03 23:43 | 50.57637 | -115.28317 | 17011 ft | 216 kts | 63° |
| 2026-05-03 23:43 | 50.58106 | -115.26107 | 17040 ft | 211 kts | 63° |
| 2026-05-03 23:43 | 50.58577 | -115.23857 | 17006 ft | 216 kts | 63° |
| 2026-05-03 23:44 | 50.59061 | -115.21616 | 16999 ft | 215 kts | 63° |
| 2026-05-03 23:44 | 50.59530 | -115.19401 | 17016 ft | 213 kts | 63° |
| 2026-05-03 23:44 | 50.60007 | -115.17175 | 17015 ft | 216 kts | 63° |
| 2026-05-03 23:44 | 50.60485 | -115.14918 | 17007 ft | 218 kts | 63° |
| 2026-05-03 23:45 | 50.60962 | -115.12657 | 17006 ft | 216 kts | 63° |
| 2026-05-03 23:45 | 50.61428 | -115.10448 | 17007 ft | 215 kts | 63° |
| 2026-05-03 23:45 | 50.61897 | -115.08231 | 16925 ft | 215 kts | 63° |
| 2026-05-03 23:45 | 50.62379 | -115.05968 | 16670 ft | 220 kts | 63° |
| 2026-05-03 23:46 | 50.62864 | -115.03672 | 16412 ft | 222 kts | 64° |
| 2026-05-03 23:46 | 50.63350 | -115.01370 | 16159 ft | 221 kts | 64° |
| 2026-05-03 23:46 | 50.63840 | -114.99060 | 15928 ft | 224 kts | 65° |
| 2026-05-03 23:46 | 50.64330 | -114.96726 | 15647 ft | 223 kts | 66° |
| 2026-05-03 23:47 | 50.64806 | -114.94431 | 15404 ft | 221 kts | 65° |
| 2026-05-03 23:47 | 50.65306 | -114.92132 | 15167 ft | 222 kts | 65° |
| 2026-05-03 23:47 | 50.65794 | -114.89812 | 14931 ft | 223 kts | 66° |
| 2026-05-03 23:47 | 50.66280 | -114.87485 | 14692 ft | 224 kts | 66° |
| 2026-05-03 23:48 | 50.66772 | -114.85164 | 14454 ft | 223 kts | 66° |
| 2026-05-03 23:48 | 50.67245 | -114.82869 | 14264 ft | 220 kts | 68° |
| 2026-05-03 23:48 | 50.67718 | -114.80582 | 14143 ft | 218 kts | 66° |
| 2026-05-03 23:48 | 50.68186 | -114.78332 | 14021 ft | 215 kts | 67° |
| 2026-05-03 23:49 | 50.68650 | -114.76108 | 13903 ft | 213 kts | 66° |
| 2026-05-03 23:49 | 50.69113 | -114.73884 | 13780 ft | 213 kts | 67° |
| 2026-05-03 23:49 | 50.69571 | -114.71672 | 13655 ft | 212 kts | 68° |
| 2026-05-03 23:49 | 50.70027 | -114.69459 | 13523 ft | 212 kts | 66° |
| 2026-05-03 23:50 | 50.70484 | -114.67248 | 13386 ft | 212 kts | 67° |
| 2026-05-03 23:50 | 50.70844 | -114.65832 | 13286 ft | 208 kts | 56° |
| 2026-05-03 23:50 | 50.72094 | -114.63590 | 13109 ft | 203 kts | 38° |
| 2026-05-03 23:50 | 50.73097 | -114.62027 | 12978 ft | 203 kts | 39° |
| 2026-05-03 23:51 | 50.74073 | -114.60451 | 12856 ft | 203 kts | 40° |
| 2026-05-03 23:51 | 50.75051 | -114.58846 | 12758 ft | 203 kts | 40° |
| 2026-05-03 23:51 | 50.76045 | -114.57222 | 12628 ft | 207 kts | 39° |
| 2026-05-03 23:51 | 50.77058 | -114.55569 | 12511 ft | 210 kts | 40° |
| 2026-05-03 23:52 | 50.78079 | -114.53899 | 12373 ft | 211 kts | 39° |
| 2026-05-03 23:52 | 50.79100 | -114.52225 | 12250 ft | 211 kts | 39° |
| 2026-05-03 23:52 | 50.80120 | -114.50557 | 12126 ft | 211 kts | 40° |
| 2026-05-03 23:52 | 50.81158 | -114.48938 | 11987 ft | 207 kts | 34° |
| 2026-05-03 23:53 | 50.82204 | -114.47382 | 11870 ft | 206 kts | 38° |
| 2026-05-03 23:53 | 50.83220 | -114.45785 | 11733 ft | 205 kts | 38° |
| 2026-05-03 23:53 | 50.84243 | -114.44216 | 11608 ft | 205 kts | 37° |
| 2026-05-03 23:53 | 50.85256 | -114.42686 | 11485 ft | 204 kts | 37° |
| 2026-05-03 23:54 | 50.86286 | -114.41116 | 11360 ft | 203 kts | 37° |
| 2026-05-03 23:54 | 50.87287 | -114.39586 | 11235 ft | 202 kts | 37° |
| 2026-05-03 23:54 | 50.88305 | -114.38045 | 11006 ft | 205 kts | 37° |
| 2026-05-03 23:54 | 50.89338 | -114.36471 | 10770 ft | 206 kts | 37° |
| 2026-05-03 23:55 | 50.90374 | -114.34885 | 10527 ft | 207 kts | 37° |
| 2026-05-03 23:55 | 50.91338 | -114.33194 | 10269 ft | 211 kts | 51° |
| 2026-05-03 23:55 | 50.91799 | -114.30960 | 10012 ft | 221 kts | 79° |
| 2026-05-03 23:55 | 50.91739 | -114.28533 | 9764 ft | 219 kts | 91° |
| 2026-05-03 23:56 | 50.91646 | -114.26135 | 9405 ft | 219 kts | 88° |
| 2026-05-03 23:56 | 50.91573 | -114.23771 | 8891 ft | 207 kts | 89° |
| 2026-05-03 23:56 | 50.91488 | -114.21558 | 8392 ft | 196 kts | 86° |
| 2026-05-03 23:56 | 50.91405 | -114.19433 | 7888 ft | 190 kts | 85° |
| 2026-05-03 23:57 | 50.91328 | -114.17382 | 7396 ft | 188 kts | 86° |
| 2026-05-03 23:57 | 50.91295 | -114.15334 | 6907 ft | 183 kts | 80° |
| 2026-05-03 23:57 | 50.91307 | -114.13325 | 6433 ft | 179 kts | 83° |
| 2026-05-03 23:57 | 50.91290 | -114.11389 | 5936 ft | 172 kts | 82° |
| 2026-05-03 23:58 | 50.91280 | -114.09632 | 5892 ft | 143 kts | 81° |
| 2026-05-03 23:58 | 50.91275 | -114.08160 | 5931 ft | 130 kts | 77° |
| 2026-05-03 23:58 | 50.91287 | -114.06700 | 5931 ft | 134 kts | 77° |
| 2026-05-03 23:58 | 50.91290 | -114.05210 | 5933 ft | 135 kts | 79° |
| 2026-05-03 23:59 | 50.91307 | -114.03738 | 5929 ft | 133 kts | 72° |
| 2026-05-03 23:59 | 50.91713 | -114.02588 | 5934 ft | 115 kts | 31° |
| 2026-05-03 23:59 | 50.92419 | -114.02131 | 5928 ft | 107 kts | 2° |
| 2026-05-03 23:59 | 50.93154 | -114.02145 | 5939 ft | 104 kts | 358° |
| 2026-05-04 00:00 | 50.93877 | -114.02146 | 5940 ft | 104 kts | 357° |
| 2026-05-04 00:00 | 50.94600 | -114.02148 | 5941 ft | 105 kts | 356° |
| 2026-05-04 00:00 | 50.95322 | -114.02151 | 5938 ft | 105 kts | 358° |
| 2026-05-04 00:00 | 50.96052 | -114.02146 | 5933 ft | 104 kts | 357° |
| 2026-05-04 00:01 | 50.96773 | -114.02147 | 5940 ft | 102 kts | 358° |
| 2026-05-04 00:01 | 50.97504 | -114.02148 | 5902 ft | 110 kts | 357° |
| 2026-05-04 00:01 | 50.98324 | -114.02150 | 5766 ft | 125 kts | 358° |
| 2026-05-04 00:01 | 50.99230 | -114.02143 | 5594 ft | 133 kts | 358° |
| 2026-05-04 00:02 | 51.00170 | -114.02153 | 5412 ft | 135 kts | 359° |
| 2026-05-04 00:02 | 51.01110 | -114.02143 | 5239 ft | 135 kts | 359° |
| 2026-05-04 00:02 | 51.02058 | -114.02145 | 5061 ft | 137 kts | 358° |
| 2026-05-04 00:02 | 51.02972 | -114.02144 | 4881 ft | 113 kts | 0° |
| 2026-05-04 00:03 | 51.03621 | -114.02141 | 4740 ft | 81 kts | 359° |
| 2026-05-04 00:03 | 51.04156 | -114.02143 | 4631 ft | 76 kts | 358° |
| 2026-05-04 00:03 | 51.04704 | -114.02152 | 4535 ft | 82 kts | 358° |
| 2026-05-04 00:03 | 51.05287 | -114.02142 | 4435 ft | 85 kts | 2° |
| 2026-05-04 00:04 | 51.05884 | -114.02133 | 4331 ft | 89 kts | 0° |
| 2026-05-04 00:04 | 51.06520 | -114.02142 | 4201 ft | 91 kts | 0° |
| 2026-05-04 00:04 | 51.07155 | -114.02137 | 4052 ft | 89 kts | 3° |
| 2026-05-04 00:04 | 51.07765 | -114.02147 | 3944 ft | 88 kts | 4° |
| 2026-05-04 00:05 | 51.08385 | -114.02136 | 3828 ft | 88 kts | 5° |
| 2026-05-04 00:05 | 51.08992 | -114.02141 | 3731 ft | 86 kts | 5° |
| 2026-05-04 00:05 | 51.09592 | -114.02140 | 3601 ft | 90 kts | 3° |
| 2026-05-04 00:05 | 51.10214 | -114.02140 | 3559 ft | 86 kts | 4° |
| 2026-05-04 00:06 | 51.10747 | -114.02133 | 3553 ft | 61 kts | 359° |
| 2026-05-04 00:06 | 51.11045 | -114.02133 | 3555 ft | 33 kts | 359° |
| 2026-05-04 00:06 | 51.11247 | -114.02133 | 3554 ft | 26 kts | 6° |
| 2026-05-04 00:06 | 51.11400 | -114.02116 | 3551 ft | 18 kts | 25° |
| 2026-05-04 00:07 | 51.11429 | -114.01978 | 3552 ft | 13 kts | 95° |
| 2026-05-04 00:07 | 51.11428 | -114.01939 | 3553 ft | 0 kts | 93° |
| 2026-05-04 00:07 | 51.11427 | -114.01936 | 3553 ft | 2 kts | 93° |
| 2026-05-04 00:07 | 51.11409 | -114.01807 | 3553 ft | 16 kts | 145° |
| 2026-05-04 00:08 | 51.11281 | -114.01792 | 3553 ft | 22 kts | 174° |
| 2026-05-04 00:08 | 51.11125 | -114.01796 | 3553 ft | 23 kts | 178° |
| 2026-05-04 00:08 | 51.10957 | -114.01798 | 3553 ft | 25 kts | 185° |
| 2026-05-04 00:08 | 51.10777 | -114.01798 | 3553 ft | 26 kts | 179° |
| 2026-05-04 00:09 | 51.10595 | -114.01797 | 3553 ft | 26 kts | 179° |
| 2026-05-04 00:09 | 51.10437 | -114.01796 | 3554 ft | 10 kts | 180° |
| 2026-05-04 00:09 | 51.10407 | -114.01697 | 3554 ft | 14 kts | 104° |
| 2026-05-04 00:09 | 51.10325 | -114.01649 | 3553 ft | 15 kts | 179° |
| 2026-05-04 00:10 | 51.10218 | -114.01645 | 3553 ft | 16 kts | 180° |
| 2026-05-04 00:10 | 51.10106 | -114.01647 | 3553 ft | 16 kts | 180° |
| 2026-05-04 00:10 | 51.10009 | -114.01575 | 3553 ft | 16 kts | 133° |
| 2026-05-04 00:10 | 51.09927 | -114.01446 | 3553 ft | 17 kts | 133° |
| 2026-05-04 00:11 | 51.09864 | -114.01334 | 3553 ft | 7 kts | 91° |
| 2026-05-04 00:11 | 51.09903 | -114.01286 | 3553 ft | 9 kts | 310° |
| 2026-05-04 00:11 | 51.09930 | -114.01326 | 3553 ft | 7 kts | 333° |
| 2026-05-04 00:11 | 51.09934 | -114.01340 | 3553 ft | 0 kts | 232° |